Time;durP1;ratioP1;P1;durP2;ratioP2;P2;SDS_P1;SDS_P2;PMS_P1;PMS_P2;Temp;Humidity;BMP_temperature;BMP_pressure;BME280_temperature;BME280_humidity;BME280_pressure;Samples;Min_cycle;Max_cycle;Signal;HPM_P1;HPM_P2
2022/04/08 00:00:42;;;;;;;8.80;1.55;;;;;;;5.58;100.00;99525.75;2580572;54;20051;31
2022/04/08 00:03:21;;;;;;;14.40;2.50;;;;;;;5.63;100.00;99541.38;2580322;46;21333;31
2022/04/08 00:13:51;;;;;;;10.50;1.90;;;;;;;5.35;100.00;99568.66;2580154;54;20893;31
2022/04/08 00:18:59;;;;;;;11.30;1.90;;;;;;;5.32;100.00;99576.09;2580420;54;20259;31
2022/04/08 00:24:07;;;;;;;10.35;1.40;;;;;;;5.23;100.00;99597.25;2584130;39;21207;31
2022/04/08 00:29:18;;;;;;;9.45;1.50;;;;;;;5.16;100.00;99593.44;2580436;54;21314;31
2022/04/08 00:32:00;;;;;;;6.70;1.60;;;;;;;5.14;100.00;99598.06;2581402;39;20326;31
2022/04/08 00:34:35;;;;;;;10.55;1.73;;;;;;;5.13;100.00;99598.19;2581895;46;20845;31
2022/04/08 00:45:00;;;;;;;9.90;2.13;;;;;;;4.94;100.00;99606.94;2582997;54;20026;31
2022/04/08 00:50:09;;;;;;;6.50;2.00;;;;;;;4.80;100.00;99616.94;2584271;54;20737;31
2022/04/08 00:52:46;;;;;;;5.70;1.60;;;;;;;4.73;100.00;99615.78;2585057;47;20118;31
2022/04/08 01:03:09;;;;;;;10.37;2.20;;;;;;;4.57;100.00;99635.69;2587588;39;21201;31
2022/04/08 01:05:45;;;;;;;8.85;2.00;;;;;;;4.55;100.00;99628.81;2584712;47;20857;31
2022/04/08 01:08:20;;;;;;;15.00;2.40;;;;;;;4.54;100.00;99646.59;2595104;39;21138;31
2022/04/08 01:13:35;;;;;;;;;;;;;;;4.41;100.00;99645.09;2584633;54;20046;31
2022/04/08 01:16:13;;;;;;;12.48;2.05;;;;;;;4.42;100.00;99655.63;2585133;54;20827;31
2022/04/08 01:18:53;;;;;;;8.37;1.63;;;;;;;4.38;100.00;99654.19;2585101;54;20042;31
2022/04/08 01:21:29;;;;;;;12.40;2.03;;;;;;;4.37;100.00;99665.81;2595179;39;21379;31
2022/04/08 01:29:22;;;;;;;10.50;2.40;;;;;;;4.50;100.00;99669.16;2584784;54;20098;31
2022/04/08 01:31:58;;;;;;;14.65;2.20;;;;;;;4.39;100.00;99675.38;2584948;47;21861;31
2022/04/08 01:34:33;;;;;;;9.10;1.80;;;;;;;4.43;100.00;99678.66;2584074;54;20023;31
2022/04/08 01:37:09;;;;;;;16.40;2.50;;;;;;;4.34;100.00;99674.91;2584816;54;20141;31
2022/04/08 01:39:45;;;;;;;12.82;2.38;;;;;;;4.29;100.00;99687.75;2585168;54;20045;31
2022/04/08 01:42:23;;;;;;;12.45;2.45;;;;;;;4.28;100.00;99679.88;2584683;47;20035;31
2022/04/08 01:47:34;;;;;;;11.02;2.63;;;;;;;4.26;100.00;99688.00;2585057;54;20118;31
2022/04/08 01:50:10;;;;;;;15.25;2.55;;;;;;;4.20;100.00;99683.19;2592779;31;21335;31
2022/04/08 01:52:46;;;;;;;13.90;2.10;;;;;;;4.17;100.00;99689.59;2586078;47;20042;31
2022/04/08 01:58:02;;;;;;;11.85;2.70;;;;;;;3.97;100.00;99693.84;2585151;54;21280;31
2022/04/08 02:03:15;;;;;;;15.27;2.65;;;;;;;4.01;100.00;99700.63;2585507;54;20246;31
2022/04/08 02:08:24;;;;;;;12.20;2.63;;;;;;;4.03;100.00;99687.19;2593390;39;20866;31
2022/04/08 02:13:53;;;;;;;11.48;2.30;;;;;;;4.02;100.00;99697.00;2631847;54;20049;-84
2022/04/08 02:16:28;;;;;;;14.25;2.30;;;;;;;3.96;100.00;99697.50;2586092;47;20038;31
2022/04/08 02:24:18;;;;;;;10.40;2.47;;;;;;;3.64;100.00;99703.53;2585173;54;20128;31
2022/04/08 02:26:53;;;;;;;10.95;2.15;;;;;;;3.67;100.00;99707.78;2585876;54;20042;31
2022/04/08 02:32:09;;;;;;;;;;;;;;;3.71;100.00;99714.56;2585520;54;20122;31
2022/04/08 02:34:45;;;;;;;9.90;2.30;;;;;;;3.72;100.00;99718.91;2585442;54;20884;31
2022/04/08 02:37:21;;;;;;;13.20;3.10;;;;;;;3.73;100.00;99725.09;2585955;47;20038;31
2022/04/08 02:45:11;;;;;;;15.85;3.20;;;;;;;3.67;100.00;99737.06;2584592;54;20863;31
2022/04/08 02:50:19;;;;;;;16.77;3.00;;;;;;;3.77;100.00;99740.69;2585289;54;20026;31
2022/04/08 02:55:43;;;;;;;10.20;1.70;;;;;;;4.13;100.00;99768.03;2585111;54;20873;31
2022/04/08 02:58:21;;;;;;;5.38;1.33;;;;;;;4.20;100.00;99779.88;2585240;46;20042;31
2022/04/08 03:00:59;;;;;;;5.30;1.30;;;;;;;4.28;100.00;99776.59;2586131;47;22289;31
2022/04/08 03:08:47;;;;;;;;;;;;;;;4.18;100.00;99786.28;2589506;39;21370;31
2022/04/08 03:14:09;;;;;;;6.60;1.80;;;;;;;4.08;100.00;99775.53;2583898;54;20042;31
2022/04/08 03:16:48;;;;;;;5.47;2.25;;;;;;;4.12;100.00;99774.34;2585572;47;20042;31
2022/04/08 03:24:34;;;;;;;11.07;2.33;;;;;;;4.18;100.00;99780.97;2584461;54;20030;31
2022/04/08 03:35:11;;;;;;;10.75;2.30;;;;;;;4.00;100.00;99804.56;2584571;54;20834;31
2022/04/08 03:40:20;;;;;;;7.80;2.10;;;;;;;3.98;100.00;99788.72;2584885;54;20733;31
2022/04/08 03:42:56;;;;;;;4.93;2.20;;;;;;;4.02;100.00;99786.69;2585622;47;21120;31
2022/04/08 03:50:46;;;;;;;7.95;2.65;;;;;;;4.02;100.00;99784.03;2584402;54;20068;31
2022/04/08 03:55:54;;;;;;;4.53;2.40;;;;;;;3.98;100.00;99771.91;2584774;54;20938;31
2022/04/08 03:58:33;;;;;;;10.75;2.85;;;;;;;4.00;100.00;99772.63;2585733;54;20832;31
2022/04/08 04:06:23;;;;;;;3.65;1.70;;;;;;;3.88;100.00;99789.56;2584171;54;20887;31
2022/04/08 04:11:32;;;;;;;6.20;2.20;;;;;;;3.80;100.00;99785.69;2587491;39;20337;31
2022/04/08 04:14:09;;;;;;;7.50;2.40;;;;;;;3.78;100.00;99790.25;2585292;54;20747;31
2022/04/08 04:21:58;;;;;;;13.35;3.50;;;;;;;3.50;100.00;99784.44;2584271;54;20089;31
2022/04/08 04:29:39;;;;;;;5.97;2.30;;;;;;;3.55;100.00;99776.09;2584636;54;20034;31
2022/04/08 04:32:17;;;;;;;9.73;2.30;;;;;;;3.40;100.00;99783.44;2585242;46;20042;31
2022/04/08 04:42:42;;;;;;;11.70;3.10;;;;;;;3.31;100.00;99776.13;2584275;54;20116;31
2022/04/08 04:47:50;;;;;;;8.63;2.60;;;;;;;3.29;100.00;99783.41;2584478;54;20098;31
2022/04/08 04:50:26;;;;;;;10.63;2.90;;;;;;;3.30;100.00;99774.47;2585470;54;21094;31
2022/04/08 04:58:18;;;;;;;11.50;3.25;;;;;;;3.21;100.00;99785.78;2584840;54;20226;31
2022/04/08 05:05:59;;;;;;;13.80;3.50;;;;;;;3.35;100.00;99780.25;2584421;54;20064;31
2022/04/08 05:11:07;;;;;;;14.60;3.50;;;;;;;3.37;100.00;99788.97;2584330;54;20476;31
2022/04/08 05:16:23;;;;;;;10.80;3.45;;;;;;;3.37;100.00;99785.47;2584221;54;20899;31
2022/04/08 05:21:33;;;;;;;14.70;4.20;;;;;;;3.40;100.00;99786.09;2584256;54;20136;31
2022/04/08 05:24:09;;;;;;;16.10;4.70;;;;;;;3.41;100.00;99784.28;2584679;47;20377;31
2022/04/08 05:26:44;;;;;;;15.20;4.80;;;;;;;3.46;100.00;99798.94;2584818;54;20062;31
2022/04/08 05:37:03;;;;;;;16.83;4.40;;;;;;;3.63;100.00;99799.44;2585423;54;20053;31
2022/04/08 05:39:39;;;;;;;10.65;4.50;;;;;;;3.44;100.00;99790.19;2585738;47;20940;31
2022/04/08 05:47:29;;;;;;;8.77;3.85;;;;;;;3.64;100.00;99795.81;2584686;54;20120;31
2022/04/08 05:50:06;;;;;;;13.05;3.95;;;;;;;3.73;100.00;99792.44;2585387;46;20046;31
2022/04/08 05:52:44;;;;;;;16.57;4.20;;;;;;;3.64;100.00;99796.66;2604413;36;20034;31
2022/04/08 06:00:34;;;;;;;9.63;3.97;;;;;;;3.77;100.00;99793.91;2584882;54;20089;31
2022/04/08 06:05:43;;;;;;;22.35;5.10;;;;;;;4.21;100.00;99788.72;2585196;54;22712;31
2022/04/08 06:13:26;;;;;;;14.25;4.00;;;;;;;4.13;100.00;99793.81;2584791;54;20040;31
2022/04/08 06:18:36;;;;;;;8.37;4.10;;;;;;;4.00;100.00;99801.91;2584621;54;20039;31
2022/04/08 06:24:00;;;;;;;12.02;4.07;;;;;;;4.15;100.00;99803.38;2585347;54;20266;31
2022/04/08 06:37:46;;;;;;;11.87;4.13;;;;;;;4.58;100.00;99804.44;2584094;54;20097;31
2022/04/08 06:40:26;;;;;;;11.10;4.30;;;;;;;4.48;100.00;99801.66;2584357;47;20142;31
2022/04/08 06:54:05;;;;;;;10.20;3.40;;;;;;;4.98;100.00;99800.34;2590420;39;20594;31
2022/04/08 06:56:49;;;;;;;11.57;4.03;;;;;;;5.13;100.00;99793.75;2584166;47;20099;31
2022/04/08 06:59:27;;;;;;;11.55;4.20;;;;;;;5.12;100.00;99794.69;2585149;46;20305;31
2022/04/08 07:13:33;;;;;;;11.43;3.60;;;;;;;5.68;100.00;99782.88;2584293;54;20903;31
2022/04/08 07:19:13;;;;;;;10.50;3.50;;;;;;;5.83;100.00;99786.09;2586889;39;20254;31
2022/04/08 07:21:52;;;;;;;9.82;4.20;;;;;;;5.94;100.00;99787.84;2584432;46;20751;31
2022/04/08 07:53:06;;;;;;;12.70;4.00;;;;;;;6.86;100.00;99767.31;2583639;54;21007;31
2022/04/08 07:55:50;;;;;;;16.80;4.23;;;;;;;6.95;100.00;99762.00;2584234;47;20046;31
2022/04/08 07:58:36;;;;;;;11.13;3.15;;;;;;;7.02;100.00;99756.91;2582980;47;20902;31
2022/04/08 08:06:55;;;;;;;10.23;2.65;;;;;;;7.26;100.00;99752.97;2583612;54;20046;31
2022/04/08 08:09:38;;;;;;;12.45;3.45;;;;;;;7.12;100.00;99747.06;2583071;54;20054;31
2022/04/08 08:40:30;;;;;;;12.57;2.60;;;;;;;8.53;100.00;99742.72;2583109;54;20833;31
2022/04/08 08:43:15;;;;;;;10.15;3.03;;;;;;;8.55;100.00;99740.72;2584350;47;21234;31
2022/04/08 08:51:37;;;;;;;6.25;2.13;;;;;;;8.66;100.00;99730.78;2584252;54;20080;31
2022/04/08 09:12:33;;;;;;;9.15;2.20;;;;;;;9.19;100.00;99715.69;2583062;54;20883;31
2022/04/08 09:23:00;;;;;;;7.90;2.30;;;;;;;8.91;100.00;99708.56;2583159;54;20414;31
2022/04/08 09:31:22;;;;;;;6.60;2.13;;;;;;;9.37;100.00;99703.06;2583403;54;20294;31
2022/04/08 09:36:57;;;;;;;9.05;2.00;;;;;;;9.58;100.00;99697.31;2582484;54;19969;31
2022/04/08 09:45:11;;;;;;;12.85;1.80;;;;;;;9.57;100.00;99702.84;2597501;31;21288;31
2022/04/08 09:53:09;;;;;;;8.00;1.80;;;;;;;9.34;100.00;99702.53;2582829;54;20035;31
2022/04/08 09:58:29;;;;;;;7.10;1.80;;;;;;;9.60;100.00;99711.44;2583082;54;19946;31
2022/04/08 10:01:08;;;;;;;8.63;2.00;;;;;;;9.67;100.00;99692.81;2584103;47;21137;31
2022/04/08 10:11:40;;;;;;;9.63;1.98;;;;;;;9.62;100.00;99681.72;2590495;31;20844;31
2022/04/08 10:14:24;;;;;;;6.75;2.03;;;;;;;9.80;100.00;99684.34;2583313;47;20042;31
2022/04/08 10:17:00;;;;;;;7.27;1.77;;;;;;;9.66;100.00;99688.47;2584786;54;20536;31
2022/04/08 10:27:37;;;;;;;5.55;1.85;;;;;;;10.26;100.00;99703.72;2583786;54;20038;31
2022/04/08 10:35:20;;;;;;;9.25;2.00;;;;;;;10.42;100.00;99702.09;2582956;54;20110;31
2022/04/08 10:40:33;;;;;;;5.20;1.47;;;;;;;10.71;100.00;99690.06;2588013;39;21151;31
2022/04/08 10:43:14;;;;;;;9.43;2.25;;;;;;;10.63;100.00;99697.13;2583426;39;21349;31
2022/04/08 10:53:40;;;;;;;7.40;1.60;;;;;;;10.60;100.00;99701.97;2583847;54;20862;31
2022/04/08 10:59:02;;;;;;;7.15;1.75;;;;;;;10.49;100.00;99695.88;2583588;54;21125;31
2022/04/08 11:01:46;;;;;;;5.10;1.70;;;;;;;10.48;100.00;99696.91;2592121;31;20870;31
2022/04/08 11:18:28;;;;;;;9.60;1.47;;;;;;;10.68;100.00;99696.63;2583309;54;21385;31
2022/04/08 12:03:25;;;;;;;7.10;2.10;;;;;;;9.90;100.00;99651.97;2583358;54;20771;31
2022/04/08 12:09:04;;;;;;;7.60;2.55;;;;;;;9.47;100.00;99660.00;2582907;39;20401;31
2022/04/08 12:14:36;;;;;;;11.60;2.40;;;;;;;9.88;100.00;99645.91;2582927;54;20040;31
2022/04/08 12:23:13;;;;;;;12.85;2.70;;;;;;;10.05;100.00;99630.69;2582886;54;20242;31
2022/04/08 12:28:44;;;;;;;5.40;2.27;;;;;;;10.46;100.00;99639.72;2580496;54;20065;31
2022/04/08 12:53:54;;;;;;;9.25;2.92;;;;;;;10.12;100.00;99629.88;2581794;54;21515;31
2022/04/08 12:56:32;;;;;;;7.80;2.30;;;;;;;9.98;100.00;99631.34;2582192;54;19950;31
2022/04/08 13:07:35;;;;;;;6.85;1.90;;;;;;;11.19;100.00;99634.56;2582860;54;20035;31
2022/04/08 13:12:58;;;;;;;8.57;2.40;;;;;;;11.18;100.00;99644.47;2582253;54;20093;31
2022/04/08 13:15:37;;;;;;;8.27;2.35;;;;;;;11.18;100.00;99638.25;2582307;54;19946;31
2022/04/08 13:20:52;;;;;;;8.27;1.73;;;;;;;10.66;100.00;99634.06;2581874;39;21396;31
2022/04/08 13:23:28;;;;;;;3.10;1.60;;;;;;;10.83;100.00;99632.19;2581270;47;21099;31
2022/04/08 13:26:03;;;;;;;8.27;2.20;;;;;;;10.62;100.00;99636.22;2582637;39;21279;31
2022/04/08 13:36:37;;;;;;;9.80;2.30;;;;;;;10.77;100.00;99636.41;2581760;54;20078;31
2022/04/08 14:02:25;;;;;;;7.45;1.60;;;;;;;10.61;100.00;99625.63;2582939;54;20039;31
2022/04/08 14:07:33;;;;;;;6.35;2.50;;;;;;;10.57;100.00;99645.81;2582509;54;20034;31
2022/04/08 14:10:09;;;;;;;7.05;2.25;;;;;;;10.42;100.00;99638.38;2583121;46;20045;31
2022/04/08 14:12:44;;;;;;;6.35;2.17;;;;;;;10.37;100.00;99639.91;2601369;36;20042;31
2022/04/08 14:17:58;;;;;;;7.33;2.40;;;;;;;10.40;100.00;99637.72;2582552;54;20033;31
2022/04/08 14:20:44;;;;;;;6.75;2.35;;;;;;;10.57;100.00;99640.41;2583540;54;20258;31
2022/04/08 14:34:25;;;;;;;8.50;1.90;;;;;;;10.30;100.00;99645.88;2583394;54;20966;31
2022/04/08 14:39:36;;;;;;;7.78;2.20;;;;;;;10.02;100.00;99642.59;2582825;54;20816;31
2022/04/08 14:42:11;;;;;;;9.17;1.80;;;;;;;10.28;100.00;99653.28;2583463;47;20046;31
2022/04/08 14:47:19;;;;;;;7.35;2.00;;;;;;;9.71;100.00;99645.84;2582794;54;20042;31
2022/04/08 14:49:56;;;;;;;6.95;1.90;;;;;;;9.80;100.00;99661.03;2584345;47;20799;31
2022/04/08 14:55:06;;;;;;;5.10;1.70;;;;;;;9.82;100.00;99663.53;2582886;54;20336;31
2022/04/08 14:57:42;;;;;;;5.80;1.43;;;;;;;9.92;100.00;99663.41;2582794;54;20042;31
2022/04/08 15:03:04;;;;;;;5.90;1.80;;;;;;;9.71;100.00;99672.72;2583224;54;20058;31
2022/04/08 15:08:12;;;;;;;4.88;1.77;;;;;;;10.44;100.00;99667.81;2584631;54;19996;31
2022/04/08 15:10:52;;;;;;;6.70;1.70;;;;;;;10.56;100.00;99668.34;2583612;54;20045;31
2022/04/08 15:18:33;;;;;;;6.80;2.10;;;;;;;10.14;100.00;99678.09;2582586;54;20082;31
2022/04/08 15:21:09;;;;;;;8.43;1.50;;;;;;;10.28;100.00;99682.88;2583795;46;20763;31
2022/04/08 15:28:58;;;;;;;9.05;1.70;;;;;;;9.79;100.00;99696.09;2583303;54;21091;31
2022/04/08 15:34:06;;;;;;;6.45;2.05;;;;;;;9.92;100.00;99695.66;2583812;54;20050;31
2022/04/08 15:44:28;;;;;;;5.03;1.73;;;;;;;10.12;100.00;99701.63;2585051;54;20258;31
2022/04/08 15:47:03;;;;;;;5.05;1.60;;;;;;;9.97;100.00;99704.09;2584323;54;21029;31
2022/04/08 15:55:04;;;;;;;4.90;1.50;;;;;;;9.79;100.00;99706.84;2583832;54;20058;31
2022/04/08 15:57:48;;;;;;;5.25;1.90;;;;;;;9.59;100.00;99715.13;2584464;47;20065;31
2022/04/08 16:00:27;;;;;;;3.30;1.17;;;;;;;9.26;100.00;99712.22;2583848;54;20155;31
2022/04/08 16:06:06;;;;;;;7.30;1.60;;;;;;;9.49;100.00;99727.81;2592276;31;20357;31
2022/04/08 16:08:44;;;;;;;6.60;1.20;;;;;;;9.33;100.00;99723.16;2602920;36;20274;31
2022/04/08 16:19:11;;;;;;;8.10;1.50;;;;;;;9.08;100.00;99741.75;2583354;54;20066;31
2022/04/08 16:26:51;;;;;;;5.50;1.70;;;;;;;9.07;100.00;99755.34;2584122;54;20045;31
2022/04/08 16:29:28;;;;;;;6.55;1.80;;;;;;;9.07;100.00;99753.50;2584950;46;20305;31
2022/04/08 16:32:10;;;;;;;12.50;1.83;;;;;;;8.94;100.00;99750.34;2632108;47;20046;-85
2022/04/08 16:35:03;;;;;;;7.05;1.70;;;;;;;8.93;100.00;99759.38;2632121;47;20021;-85
2022/04/08 16:40:12;;;;;;;6.63;1.40;;;;;;;8.71;100.00;99761.50;2583438;54;20855;31
2022/04/08 16:42:47;;;;;;;3.90;1.70;;;;;;;8.66;100.00;99766.50;2583744;47;20848;31
2022/04/08 16:45:23;;;;;;;7.85;1.80;;;;;;;8.55;100.00;99778.28;2584907;54;20109;31
2022/04/08 16:53:18;;;;;;;9.00;2.25;;;;;;;8.61;100.00;99790.22;2583700;54;20038;31
2022/04/08 16:55:56;;;;;;;7.35;2.50;;;;;;;8.60;100.00;99791.25;2592141;39;20937;31
2022/04/08 17:03:45;;;;;;;5.95;1.90;;;;;;;8.13;100.00;99793.97;2584317;54;20058;31
2022/04/08 17:08:54;;;;;;;5.85;1.80;;;;;;;8.14;100.00;99798.31;2583491;54;20102;31
2022/04/08 17:14:05;;;;;;;6.43;1.83;;;;;;;8.02;100.00;99809.22;2583810;54;20780;31
2022/04/08 17:16:43;;;;;;;7.80;2.00;;;;;;;8.03;100.00;99805.53;2602626;36;20085;31
2022/04/08 17:24:34;;;;;;;8.82;1.83;;;;;;;7.79;100.00;99807.84;2583968;54;20930;31
2022/04/08 17:27:10;;;;;;;6.75;1.80;;;;;;;7.77;100.00;99809.84;2584559;47;20038;31
2022/04/08 17:34:53;;;;;;;9.40;2.90;;;;;;;7.75;100.00;99811.84;2583468;54;20045;31
2022/04/08 17:37:28;;;;;;;6.70;2.10;;;;;;;7.57;100.00;99817.91;2583856;47;20065;31
2022/04/08 17:40:05;;;;;;;8.15;2.42;;;;;;;7.58;100.00;99816.91;2584909;54;21351;31
2022/04/08 17:47:43;;;;;;;11.60;2.30;;;;;;;7.56;100.00;99818.88;2583243;54;20389;31
2022/04/08 17:50:28;;;;;;;4.95;1.50;;;;;;;7.44;100.00;99823.53;2588164;39;20324;31
2022/04/08 17:53:07;;;;;;;9.25;1.70;;;;;;;7.34;100.00;99820.84;2584667;46;20958;31
2022/04/08 17:55:46;;;;;;;9.10;2.00;;;;;;;7.34;100.00;99823.53;2584627;54;20040;31
2022/04/08 18:03:28;;;;;;;6.72;2.38;;;;;;;7.24;100.00;99825.38;2583685;54;20065;31
2022/04/08 18:06:14;;;;;;;7.70;1.92;;;;;;;7.36;100.00;99820.72;2584105;47;20982;31
2022/04/08 18:08:55;;;;;;;10.60;1.90;;;;;;;7.15;100.00;99829.72;2585182;46;20879;31
2022/04/08 18:16:49;;;;;;;13.07;5.03;;;;;;;6.95;100.00;99831.53;2583554;54;20030;31
2022/04/08 18:25:05;;;;;;;5.00;1.48;;;;;;;6.83;100.00;99833.50;2584343;54;20243;31
2022/04/08 18:27:48;;;;;;;8.10;2.72;;;;;;;6.73;100.00;99839.78;2587430;39;20284;31
2022/04/08 18:33:06;;;;;;;7.72;2.88;;;;;;;6.53;100.00;99842.41;2583988;54;21474;31
2022/04/08 18:35:42;;;;;;;8.55;2.60;;;;;;;6.55;100.00;99848.47;2595432;31;20867;31
2022/04/08 18:38:18;;;;;;;8.67;2.53;;;;;;;6.51;100.00;99852.41;2584434;54;20258;31
2022/04/08 18:40:54;;;;;;;8.30;2.75;;;;;;;6.47;100.00;99859.81;2584244;46;20258;31
2022/04/08 18:43:33;;;;;;;10.15;2.60;;;;;;;6.41;100.00;99859.53;2584403;54;20408;31
2022/04/08 18:48:49;;;;;;;11.50;2.95;;;;;;;6.40;100.00;99855.97;2583753;54;20764;31
2022/04/08 18:51:34;;;;;;;16.13;3.80;;;;;;;6.32;100.00;99871.84;2584626;47;20044;31
2022/04/08 18:57:01;;;;;;;10.05;3.10;;;;;;;6.22;100.00;99871.81;2584659;54;20933;31
2022/04/08 19:10:06;;;;;;;7.60;2.60;;;;;;;6.17;100.00;99883.84;2583980;54;21519;31
2022/04/08 19:15:20;;;;;;;11.57;3.13;;;;;;;6.18;100.00;99894.41;2583800;54;20065;31
2022/04/08 19:18:05;;;;;;;7.30;3.70;;;;;;;6.14;100.00;99891.16;2583658;47;20045;31
2022/04/08 19:20:41;;;;;;;9.85;3.95;;;;;;;6.08;100.00;99901.53;2602511;36;20414;31
2022/04/08 19:23:23;;;;;;;10.45;3.20;;;;;;;6.08;100.00;99902.38;2583858;47;20049;31
2022/04/08 19:26:03;;;;;;;18.65;2.70;;;;;;;6.06;100.00;99898.16;2584628;46;20072;31
2022/04/08 19:36:25;;;;;;;13.02;2.58;;;;;;;5.97;100.00;99916.63;2583255;54;20057;31
2022/04/08 19:41:35;;;;;;;11.97;2.47;;;;;;;5.96;100.00;99920.28;2583267;54;20101;31
2022/04/08 19:44:16;;;;;;;12.60;3.05;;;;;;;5.89;100.00;99920.88;2583508;47;20894;31
2022/04/08 19:46:56;;;;;;;15.45;3.10;;;;;;;5.83;100.00;99932.09;2583795;54;20050;31
2022/04/08 19:57:23;;;;;;;15.43;4.20;;;;;;;5.83;100.00;99935.63;2583767;54;20034;31
2022/04/08 20:02:34;;;;;;;11.23;3.65;;;;;;;5.82;100.00;99946.44;2583061;54;20396;31
2022/04/08 20:05:10;;;;;;;19.50;9.15;;;;;;;5.78;100.00;99957.34;2583753;47;20394;31
2022/04/08 20:12:59;;;;;;;9.80;3.20;;;;;;;5.73;100.00;99956.06;2582808;54;20097;31
2022/04/08 20:18:08;;;;;;;14.50;2.80;;;;;;;5.69;100.00;99967.97;2583038;54;20054;31
2022/04/08 20:25:49;;;;;;;11.85;2.67;;;;;;;5.69;100.00;99957.28;2583119;54;20038;31
2022/04/08 20:28:29;;;;;;;12.80;2.70;;;;;;;5.69;100.00;99973.31;2583866;47;21007;31
2022/04/08 20:36:24;;;;;;;14.75;3.45;;;;;;;5.65;100.00;99975.38;2583270;54;20982;31
2022/04/08 20:39:00;;;;;;;8.40;2.50;;;;;;;5.58;100.00;99966.16;2583716;54;20892;31
2022/04/08 20:44:13;;;;;;;14.57;2.83;;;;;;;5.60;100.00;99981.09;2583229;54;20305;31
2022/04/08 20:58:06;;;;;;;17.30;2.85;;;;;;;5.38;100.00;99997.16;2582815;54;20045;31
2022/04/08 21:03:32;;;;;;;9.63;3.00;;;;;;;5.44;100.00;99997.50;2582781;54;20046;31
2022/04/08 21:06:17;;;;;;;11.60;3.03;;;;;;;5.47;100.00;99999.06;2584036;54;20902;31
2022/04/08 21:11:48;;;;;;;12.50;2.65;;;;;;;5.58;100.00;99993.72;2583727;54;20038;31
2022/04/08 21:14:28;;;;;;;14.93;3.60;;;;;;;5.58;100.00;100007.06;2584707;47;20042;31
2022/04/08 21:24:46;;;;;;;15.17;3.20;;;;;;;5.49;100.00;100013.16;2584138;54;20097;31
2022/04/08 21:53:19;;;;;;;19.50;3.85;;;;;;;5.34;100.00;100051.75;2583592;54;20723;31
2022/04/08 21:55:58;;;;;;;14.35;3.60;;;;;;;5.32;100.00;100061.69;2584579;47;20793;31
2022/04/08 22:01:07;;;;;;;16.90;3.60;;;;;;;5.25;100.00;100067.50;2583610;54;21029;31
2022/04/08 23:02:59;;;;;;;13.35;3.15;;;;;;;5.42;100.00;100174.75;2584705;54;20059;31
2022/04/08 23:08:38;;;;;;;11.20;2.20;;;;;;;5.29;100.00;100177.53;2585099;54;20979;31
